See reports from other nearby stations

Tides Pressure Air temp Water temp Dewpoint Dewpoint depression Visibility Wind speed Wind direction Waves Ship positions

no recent reports received from weather station ID 62114

sailing weather and tide predictions

Current Weather: station 62114

date/time (UTC)wind fromknots sea level pressurealtimeterstation pressurevisibilityair tempwater tempwave heightnotes
2014-Apr-18 09:00 330 9 6.1
2014-Apr-18 08:00 330 10 6.0
2014-Apr-18 07:00 340 11 6.1
2014-Apr-18 06:00 340 13 5.8
2014-Apr-18 05:00 330 15 5.6
2014-Apr-18 04:00 340 19 5.5
2014-Apr-18 03:00 340 19 5.6
2014-Apr-18 02:00 340 20 5.6
2014-Apr-18 01:00 340 23 5.8
2014-Apr-18 00:00 330 29 5.8
2014-Apr-17 23:00 330 26 6.0
2014-Apr-17 22:00 330 27 5.9
2014-Apr-17 21:00 330 29 5.6
2014-Apr-17 20:00 330 32 6.1
2014-Apr-17 19:00 330 33 6.3
2014-Apr-17 18:00 320 33 6.9
2014-Apr-17 17:00 320 34 7.0
2014-Apr-17 14:00 310 31 7.1
2014-Apr-17 13:00 300 32 6.2
2014-Apr-17 12:00 280 29 6.2
2014-Apr-17 11:00 270 29 6.1
2014-Apr-17 10:00 280 25 4.8
2014-Apr-17 09:00 260 24 6.1
2014-Apr-17 08:00 240 24 7.6
2014-Apr-17 07:00 240 20 7.4
2014-Apr-17 06:00 260 22 7.3
2014-Apr-17 05:00 270 18 7.2
2014-Apr-17 04:00 280 20 7.1
2014-Apr-17 03:00 220 27 8.1
2014-Apr-17 02:00 210 26 7.9
2014-Apr-17 01:00 210 25 7.9
2014-Apr-17 00:00 220 25 7.9
2014-Apr-16 23:00 210 24 8.1
2014-Apr-16 22:00 210 25 8.6
2014-Apr-16 21:00 210 25 8.6